AirNav   Pilot Hours Calculator
 
 1148 users online  

3G6 Tri-City Airport
Sebring, Ohio, USA

GOING TO SEBRING?


FAA INFORMATION EFFECTIVE 11 AUGUST 2022

Location

FAA Identifier: 3G6
Lat/Long: 40-54-21.6000N 081-00-00.1000W
40-54.360000N 081-00.001667W
40.9060000,-81.0000278
(estimated)
Elevation: 1187.5 ft. / 362.0 m (surveyed)
Variation: 09W (2025)
From city: 1 mile SE of SEBRING, OH
Time zone: UTC -4 (UTC -5 during Standard Time)
Zip code: 44609

Airport Operations

Airport use: Open to the public
Activation date: 07/1969
Control tower: no
ARTCC: CLEVELAND CENTER
FSS: CLEVELAND FLIGHT SERVICE STATION
NOTAMs facility: CLE (NOTAM-D service available)
Attendance: UNATNDD
Wind indicator: lighted
Segmented circle: no
Lights: ACTVT NSTD LIRL RWY 18/36 - CTAF.

Airport Communications

CTAF: 122.9
CLEVELAND APPROACH: 125.5
CLEVELAND DEPARTURE: 125.5
  • APCH/DEP SVC PRVDD BY CLEVELAND APCH (CLE) 0600-0000. APCH/DEP SVC PRVDD BY CLEVELAND ARTCC (ZOB) ON FREQS 120.775/298.95 (CHARDON RCAG) 0000-0600.

Nearby radio navigation aids

VOR radial/distance  VOR name  Freq  Var
ACOr147/15.2AKRON VOR/DME114.4004W
BSVr067/22.0BRIGGS VOR/DME112.4004W
YNGr215/29.4YOUNGSTOWN VORTAC109.0005W
EWCr286/36.1ELLWOOD CITY VOR/DME115.8008W
CXRr174/37.4CHARDON VOR/DME112.7005W

 
NDB name  Hdg/Dist  Freq  Var  ID
CASTLE264/27.427209WUCP ..- -.-. .--.

Airport Services

Fuel available: 100LL
100LL:AVBL ON REQ CALL AMGR.
Parking: tiedowns
Bottled oxygen: NONE
Bulk oxygen: NONE

Runway Information

Runway 18/36

Dimensions: 2768 x 45 ft. / 844 x 14 m
Surface: asphalt, in poor condition
Runway edge lights: non-standard
NSTD LIRL DUE TO LAYOUT, COLORS, & NON-FRANGIBLE FIXTURES.
Runway edge markings: NSTD BASIC DUE TO SML NRS & CNTRLN.
RUNWAY 18  RUNWAY 36
Latitude: 40-54.585583N40-54.134550N
Longitude: 081-00.044550W080-59.957617W
Elevation: 1184.7 ft.1177.9 ft.
Traffic pattern: leftleft
Runway heading: 181 magnetic, 172 true001 magnetic, 352 true
Markings: NSTDNSTD
Touchdown point: yes, no lightsyes, no lights
Obstructions: 30 ft. trees, 900 ft. from runway, 95 ft. left of centerline, 23:1 slope to clear
15 FT TREES, 0 FT DIST, 70 FT R.
18 ft. pole, 315 ft. from runway, 130 ft. both sides of centerline, 6:1 slope to clear
40 FT TREE, 175 FT DIST, 86 FT R.

Airport Ownership and Management from official FAA records

Ownership: Privately-owned
Owner: 3G6 LLC
18330 STATE ROUTE 62
BELOIT, OH 44609-9520
Phone 330-938-1216
Manager: WAYNE HARTER JR
18330 STATE ROUTE 62
BELOIT, OH 44609-9520
Phone 330-428-1269

Airport Operational Statistics

Aircraft based on the field: 20
Single engine airplanes: 20
    
Aircraft operations: avg 21/day *
71% local general aviation
29% transient general aviation
<1% military
<1% air taxi
* for 12-month period ending 22 July 2020

Additional Remarks

FOR CD CTC CLEVELAND APCH AT 216-352-2323, WHEN APCH CLSD CTC CLEVELAND ARTCC AT 440-774-0223/0490.
DEER, BIRDS, & WILDLIFE ON & INVOF ARPT.

Instrument Procedures

NOTE: All procedures below are presented as PDF files. If you need a reader for these files, you should download the free Adobe Reader.

NOT FOR NAVIGATION. Please procure official charts for flight.
FAA instrument procedures published for use from 11 August 2022 at 0901Z to 08 September 2022 at 0900z.

 
IAPs - Instrument Approach Procedures
RNAV (GPS) RWY 18   download (165KB)
VOR RWY 18   download (180KB)
NOTE: Special Take-Off Minimums/Departure Procedures apply   download (457KB)

Other nearby airports with instrument procedures:

38D - Salem Airpark Inc (7 nm E)
4G4 - Youngstown Elser Metro Airport (15 nm E)
KCAK - Akron-Canton Regional Airport (20 nm W)
KTSO - Carroll County-Tolson Airport (21 nm S)
02G - Columbiana County Airport (21 nm SE)
 
Loc | Ops | Rwys | IFR | FBO | Links
Com | Nav | Svcs | Stats | Notes
Area around 3G6 (Tri-City Airport)
 
Road maps at: MapQuest Bing Google
 
Aerial photo
WARNING: Photo may not be current or correct
Aerial photo of 3G6 (Tri-City Airport)
Photo taken 03-Jul-2005
from approx. 5000' AGL

Do you have a better or more recent aerial photo of Tri-City Airport that you would like to share? If so, please send us your photo.

 
Sectional chart

 
Airport distance calculator
Flying to Tri-City Airport? Find the distance to fly.

From to 3G6

Sunrise and sunset
Times for 13-Aug-2022
 Local
(UTC-4)
 Zulu
(UTC)
Morning civil twilight06:0310:03
Sunrise06:3310:33
Sunset20:2500:25
Evening civil twilight20:5400:54

Current date and time
Zulu (UTC)  13-Aug-2022 20:11:11
Local (UTC-4)  13-Aug-2022 16:11:11
 
METAR
KCAK 
20nm W 
131951Z 04004KT 10SM SCT060 OVC140 25/09 A3013 RMK AO2 SLP197 BINOVC T02500094
KPOV 
22nm NW 
131955Z AUTO 00000KT 10SM CLR 25/09 A3013 RMK AO2 T02450091 PWINO
KAKR 
22nm W 
131954Z AUTO 17005KT 10SM CLR 25/09 A3012 RMK AO2 SLP196 T02500094
KYNG 
26nm NE 
131951Z 30005KT 10SM FEW055 SCT100 BKN170 BKN250 24/09 A3014 RMK AO2 SLP201 VIRGA N T02440094 $
KUCP 
28nm E 
131956Z AUTO 00000KT 10SM CLR 24/11 RMK AO2 SLPNO T02390111 $
KBVI 
28nm E 
131955Z AUTO 22005KT 10SM CLR 26/07 A3014 RMK AO2 T02570074
KPHD 
32nm SW 
131953Z AUTO 00000KT 10SM CLR 23/12 A3013 RMK AO2 SLP200 T02330122
KPJC 
39nm E 
131955Z AUTO 20003KT 5SM HZ CLR 23/06 A3012 RMK AO2
KBJJ 
40nm W 
131956Z AUTO 29005KT 10SM CLR 22/11 A3014 RMK AO2 SLP206 T02220106
TAF
KCAK 
20nm W 
131730Z 1318/1418 04002KT P6SM BKN250 FM141000 16005KT P6SM VCSH OVC090 FM141200 15007KT 6SM -SHRA BR BKN050 FM141700 14008KT P6SM VCSH OVC060
NOTAMs
Click for the latest NOTAMs
NOTAMs are issued by the DoD/FAA and will open in a separate window not controlled by AirNav.

 

 
 

FBO, Fuel Providers, and Aircraft Ground Support

  
 Business Name 
 
 Contact 
 
 Services / Description 
 
Fuel Prices
 
Comments
  
Tri-City Airport 330-938-1216
no information available

If you are affiliated with Tri-City Airport and would like to show here your services, contact info, web link, logo, and more, click here
no prices available
 
   1 read write
Update Fuel Prices
 

Would you like to see your business listed on this page?

 If your business provides an interesting product or service to pilots, flight crews, aircraft, or users of the Tri-City Airport, you should consider listing it here.  To start the listing process, click on the button below
 
Add a business
 

Other Pages about Tri-City Airport

Update a link
 
Copyright © AirNav, LLC. All rights reserved. Privacy Policy  Contact